Milnesville, Pennsylvania
Current Conditions -  °F | °C
As of 8:55 PM on Friday 21 Nov 2014 (Local Time) from KHZL Reporting Station
Clear Clear  
Wind Chill: 19°   Ceiling: Unl
Heat Index: 25°   Visibility: 10mi
Dew Point:   Wind: 5mph
Humidity: 50%   Direction: 260°W
Pressure: 30.43"   Gusts: NA
Location:  40.99°N, 75.98°W
Report Text: KHZL 220155Z AUTO 26004KT 10SM CLR M04/M13 A3043 RMK AO2
Loading
Personal Weather Stations






























Interactive Weather Map New forecast layout! Learn more

10-Day Weather Forecast

Advertisements
Track Severe Weather on mobile